Time;durP1;ratioP1;P1;durP2;ratioP2;P2;SDS_P1;SDS_P2;PMS_P1;PMS_P2;Temp;Humidity;BMP_temperature;BMP_pressure;BME280_temperature;BME280_humidity;BME280_pressure;Samples;Min_cycle;Max_cycle;Signal;HPM_P1;HPM_P2
2023/06/11 00:01:52;;;;;;;12.68;8.88;;;;;;;20.11;56.11;100100.13;4959447;28;20062;-54
2023/06/11 00:04:24;;;;;;;12.98;8.38;;;;;;;20.06;55.99;100096.84;4970922;28;20133;-59
2023/06/11 00:06:54;;;;;;;12.15;8.40;;;;;;;20.00;56.48;100088.28;4956466;28;20109;-54
2023/06/11 00:09:23;;;;;;;13.70;8.27;;;;;;;19.97;56.33;100093.66;4961499;28;20059;-55
2023/06/11 00:11:50;;;;;;;13.32;8.88;;;;;;;19.93;56.33;100092.06;4966409;28;20046;-58
2023/06/11 00:14:16;;;;;;;14.45;8.20;;;;;;;19.90;56.60;100081.69;4962997;28;20123;-57
2023/06/11 00:16:43;;;;;;;12.65;7.57;;;;;;;19.89;56.39;100082.56;4962320;28;21619;-56
2023/06/11 00:19:11;;;;;;;11.07;8.65;;;;;;;19.86;56.62;100080.09;4961486;28;20112;-56
2023/06/11 00:21:43;;;;;;;11.95;7.57;;;;;;;19.82;56.92;100078.50;4964136;28;20161;-57
2023/06/11 00:24:13;;;;;;;12.55;7.95;;;;;;;19.77;56.72;100071.69;4958014;28;20098;-57
2023/06/11 00:26:40;;;;;;;11.02;6.07;;;;;;;19.73;56.87;100077.94;4962014;28;20667;-54
2023/06/11 00:29:08;;;;;;;13.85;8.15;;;;;;;19.71;56.99;100077.16;4957159;28;20051;-57
2023/06/11 00:31:35;;;;;;;15.85;7.68;;;;;;;19.66;57.19;100073.88;4961219;28;20053;-57
2023/06/11 00:34:02;;;;;;;13.00;7.65;;;;;;;19.60;57.14;100079.38;4966046;28;20055;-54
2023/06/11 00:36:29;;;;;;;13.32;8.02;;;;;;;19.53;57.50;100074.34;4958512;28;20515;-54
2023/06/11 00:38:56;;;;;;;13.50;7.97;;;;;;;19.49;57.37;100082.44;4966918;28;20065;-55
2023/06/11 00:41:24;;;;;;;12.45;7.20;;;;;;;19.42;57.93;100071.28;4965275;28;20046;-51
2023/06/11 00:43:54;;;;;;;11.40;7.88;;;;;;;19.40;57.95;100073.13;4966953;28;20800;-58
2023/06/11 00:46:21;;;;;;;14.15;8.00;;;;;;;19.35;57.60;100073.31;4969830;28;20074;-54
2023/06/11 00:48:50;;;;;;;15.18;7.72;;;;;;;19.34;58.10;100070.75;4967523;28;20046;-56
2023/06/11 00:51:22;;;;;;;15.93;7.00;;;;;;;19.29;58.27;100070.94;4963655;28;20053;-58
2023/06/11 00:53:51;;;;;;;12.57;8.15;;;;;;;19.23;57.88;100066.78;4967500;28;20055;-59
2023/06/11 00:56:19;;;;;;;14.77;7.38;;;;;;;19.20;58.27;100066.91;4972266;28;20054;-58
2023/06/11 00:58:48;;;;;;;13.90;8.02;;;;;;;19.15;58.22;100063.56;4964037;28;20058;-56
2023/06/11 01:01:25;;;;;;;14.90;7.35;;;;;;;19.11;58.57;100056.72;4962726;28;20047;-52
2023/06/11 01:03:56;;;;;;;18.05;8.35;;;;;;;19.07;57.94;100066.50;4961073;28;20063;-56
2023/06/11 01:06:28;;;;;;;13.05;7.60;;;;;;;19.01;58.11;100057.06;4958997;28;20054;-57
2023/06/11 01:08:57;;;;;;;12.75;7.72;;;;;;;18.96;58.95;100053.78;4962563;28;20137;-58
2023/06/11 01:11:27;;;;;;;12.55;7.88;;;;;;;18.90;58.45;100056.59;4963959;28;20043;-59
2023/06/11 01:13:54;;;;;;;14.82;7.45;;;;;;;18.85;58.54;100056.78;4966608;28;20373;-55
2023/06/11 01:16:45;;;;;;;16.25;8.05;;;;;;;18.71;59.13;100059.06;4971211;28;20129;-57
2023/06/11 01:21:59;;;;;;;13.15;5.95;;;;;;;18.72;59.43;100050.28;5049514;28;20963;-56
2023/06/11 01:27:34;;;;;;;15.65;6.03;;;;;;;18.56;58.80;100047.34;5057718;28;20397;-57
2023/06/11 01:30:03;;;;;;;10.55;5.28;;;;;;;18.58;59.44;100048.16;5028255;28;20160;-58
2023/06/11 01:32:32;;;;;;;12.32;6.65;;;;;;;18.54;59.68;100046.56;5024783;28;20052;-55
2023/06/11 01:35:01;;;;;;;11.55;5.10;;;;;;;18.50;59.60;100045.81;5025542;28;20049;-55
2023/06/11 01:37:29;;;;;;;11.23;5.50;;;;;;;18.45;59.47;100048.63;5021496;28;20064;-58
2023/06/11 01:39:56;;;;;;;11.27;5.03;;;;;;;18.42;59.59;100048.72;5020782;28;20054;-57
2023/06/11 01:42:23;;;;;;;13.77;4.95;;;;;;;18.39;59.94;100046.19;5029574;28;20049;-54
2023/06/11 01:44:49;;;;;;;13.70;5.15;;;;;;;18.36;59.35;100043.69;5028537;28;20581;-57
2023/06/11 01:47:16;;;;;;;15.18;5.47;;;;;;;18.32;59.83;100047.31;5019394;28;20053;-59
2023/06/11 01:49:43;;;;;;;13.80;5.28;;;;;;;18.29;59.99;100047.44;5027151;28;20052;-59
2023/06/11 01:52:09;;;;;;;12.35;5.22;;;;;;;18.23;59.57;100049.38;5028590;28;20053;-56
2023/06/11 01:54:36;;;;;;;24.45;5.53;;;;;;;18.21;60.12;100051.16;5025662;28;20060;-56
2023/06/11 01:57:03;;;;;;;9.65;5.55;;;;;;;18.18;60.02;100053.06;5013169;28;20042;-52
2023/06/11 01:59:30;;;;;;;15.45;5.32;;;;;;;18.15;60.29;100045.28;5031381;28;20056;-56
2023/06/11 02:01:56;;;;;;;11.05;4.80;;;;;;;18.09;60.13;100041.97;5029994;28;20077;-56
2023/06/11 02:04:23;;;;;;;14.13;5.28;;;;;;;18.05;60.10;100035.09;5006943;28;20042;-60
2023/06/11 02:06:50;;;;;;;17.77;5.10;;;;;;;18.04;60.31;100043.00;4999195;28;20050;-58
2023/06/11 02:09:17;;;;;;;12.25;5.18;;;;;;;18.01;60.46;100037.88;4995056;28;20050;-58
2023/06/11 02:11:44;;;;;;;15.15;4.95;;;;;;;17.96;60.55;100038.88;5002684;28;20049;-55
2023/06/11 02:14:11;;;;;;;13.00;5.43;;;;;;;17.92;60.14;100034.66;4999611;28;20061;-53
2023/06/11 02:16:38;;;;;;;13.25;5.65;;;;;;;17.85;60.29;100034.00;4998446;28;20053;-59
2023/06/11 02:19:05;;;;;;;16.20;5.80;;;;;;;17.81;59.95;100029.78;4999488;28;20042;-55
2023/06/11 02:21:31;;;;;;;13.95;5.40;;;;;;;17.77;60.26;100029.94;4998457;28;20042;-58
2023/06/11 02:23:58;;;;;;;14.13;4.97;;;;;;;17.72;60.68;100030.06;4998342;28;20054;-55
2023/06/11 02:26:25;;;;;;;14.88;4.90;;;;;;;17.69;60.70;100028.41;4998920;28;20081;-58
2023/06/11 02:28:52;;;;;;;14.02;4.93;;;;;;;17.66;60.89;100033.75;5002390;28;20550;-56
2023/06/11 02:31:19;;;;;;;12.30;4.80;;;;;;;17.62;59.98;100042.59;4998167;28;20042;-56
2023/06/11 02:33:45;;;;;;;11.38;4.72;;;;;;;17.55;61.22;100038.47;5001976;28;20053;-57
2023/06/11 02:36:12;;;;;;;16.02;4.93;;;;;;;17.50;61.08;100043.88;4999822;28;20050;-56
2023/06/11 02:38:39;;;;;;;12.50;4.85;;;;;;;17.47;60.96;100033.50;4987657;28;20047;-53
2023/06/11 02:41:05;;;;;;;12.43;5.03;;;;;;;17.44;60.60;100037.06;4986202;28;20054;-52
2023/06/11 02:43:32;;;;;;;12.60;5.68;;;;;;;17.41;60.89;100029.31;4995054;28;20459;-55
2023/06/11 02:45:58;;;;;;;10.32;5.03;;;;;;;17.40;60.54;100026.75;4986270;28;20062;-59
2023/06/11 02:48:25;;;;;;;9.00;4.38;;;;;;;17.37;60.50;100022.47;4986389;28;20050;-56
2023/06/11 02:50:52;;;;;;;13.23;5.72;;;;;;;17.34;60.67;100020.81;4990516;28;20062;-52
2023/06/11 02:53:18;;;;;;;13.63;4.93;;;;;;;17.32;61.35;100029.56;4995015;28;21123;-54
2023/06/11 02:55:45;;;;;;;13.70;4.80;;;;;;;17.29;60.75;100027.91;4987101;28;20559;-56
2023/06/11 02:58:12;;;;;;;15.18;5.43;;;;;;;17.26;60.63;100035.03;4988385;28;20050;-56
2023/06/11 03:00:38;;;;;;;11.18;4.72;;;;;;;17.23;61.05;100029.88;4981280;28;20050;-53
2023/06/11 03:03:05;;;;;;;14.40;5.63;;;;;;;17.18;60.93;100028.25;4986925;28;20050;-56
2023/06/11 03:05:32;;;;;;;10.02;4.78;;;;;;;17.16;61.03;100030.06;4981848;28;20050;-59
2023/06/11 03:07:59;;;;;;;9.77;5.05;;;;;;;17.13;61.19;100030.16;4985755;28;20057;-53
2023/06/11 03:10:27;;;;;;;14.30;5.07;;;;;;;17.12;60.75;100028.44;4985750;28;20130;-55
2023/06/11 03:12:54;;;;;;;15.27;4.85;;;;;;;17.10;61.39;100022.41;4987815;28;20104;-56
2023/06/11 03:15:21;;;;;;;12.23;5.18;;;;;;;17.08;61.04;100021.59;4986207;28;20319;-50
2023/06/11 03:17:48;;;;;;;11.52;4.97;;;;;;;17.06;61.18;100036.50;4984980;28;20042;-57
2023/06/11 03:20:15;;;;;;;10.32;5.40;;;;;;;17.03;60.71;100040.03;4994027;28;20088;-53
2023/06/11 03:22:42;;;;;;;14.25;5.22;;;;;;;17.00;61.17;100039.25;4994198;28;20042;-56
2023/06/11 03:25:08;;;;;;;14.93;5.20;;;;;;;16.96;61.51;100038.50;4982315;28;20054;-52
2023/06/11 03:27:36;;;;;;;14.07;4.95;;;;;;;16.92;61.23;100042.94;4995274;28;20275;-50
2023/06/11 03:30:04;;;;;;;11.65;4.93;;;;;;;16.93;61.02;100049.88;4987249;28;20043;-56
2023/06/11 03:32:31;;;;;;;9.95;5.63;;;;;;;16.89;60.88;100047.41;4988147;28;20054;-54
2023/06/11 03:34:58;;;;;;;11.07;4.43;;;;;;;16.86;61.17;100037.91;4986447;28;20057;-57
2023/06/11 03:37:27;;;;;;;10.65;4.50;;;;;;;16.83;61.10;100043.22;4990898;28;20062;-53
2023/06/11 03:39:54;;;;;;;13.60;4.60;;;;;;;16.81;61.43;100047.63;4986093;28;20054;-52
2023/06/11 03:42:20;;;;;;;14.02;5.75;;;;;;;16.78;62.08;100045.09;4984930;28;20050;-52
2023/06/11 03:44:49;;;;;;;9.68;4.68;;;;;;;16.77;61.24;100046.88;4987645;28;20509;-55
2023/06/11 03:47:15;;;;;;;11.00;5.00;;;;;;;16.75;62.19;100050.44;4990424;28;20081;-53
2023/06/11 03:49:43;;;;;;;11.77;5.55;;;;;;;16.74;62.27;100051.31;4994262;28;20061;-52
2023/06/11 03:52:10;;;;;;;11.85;5.10;;;;;;;16.68;61.55;100034.91;4989002;28;20050;-56
2023/06/11 03:54:36;;;;;;;12.95;4.70;;;;;;;16.64;62.33;100025.44;4977280;28;20053;-58
2023/06/11 03:57:03;;;;;;;8.80;4.03;;;;;;;16.63;62.36;100036.81;4987008;28;20083;-58
2023/06/11 03:59:30;;;;;;;13.02;5.40;;;;;;;16.61;61.85;100038.59;4986333;28;20058;-54
2023/06/11 04:01:56;;;;;;;12.32;4.75;;;;;;;16.60;61.98;100042.13;4986859;28;20137;-54
2023/06/11 04:04:23;;;;;;;13.90;6.13;;;;;;;16.58;62.07;100028.22;4988146;28;20053;-53
2023/06/11 04:06:50;;;;;;;16.00;6.03;;;;;;;16.56;62.20;100024.81;4985231;28;20066;-56
2023/06/11 04:09:16;;;;;;;11.27;5.28;;;;;;;16.54;62.43;100032.69;4989684;28;20478;-55
2023/06/11 04:11:43;;;;;;;10.95;5.15;;;;;;;16.52;61.83;100034.47;4979877;28;20053;-57
2023/06/11 04:14:10;;;;;;;17.25;5.97;;;;;;;16.54;61.67;100029.19;4986797;28;20053;-56
2023/06/11 04:16:36;;;;;;;12.85;4.60;;;;;;;16.55;62.46;100028.31;4990335;28;20049;-56
2023/06/11 04:19:03;;;;;;;10.75;4.35;;;;;;;16.53;62.07;100030.09;4989914;28;20568;-55
2023/06/11 04:21:30;;;;;;;13.88;5.25;;;;;;;16.50;62.02;100036.28;4988222;28;20050;-60
2023/06/11 04:23:56;;;;;;;12.00;4.55;;;;;;;16.51;62.14;100026.69;4988298;28;20090;-56
2023/06/11 04:26:25;;;;;;;14.23;4.88;;;;;;;16.49;62.57;100020.63;4989707;28;20129;-55
2023/06/11 04:28:52;;;;;;;10.57;4.57;;;;;;;16.50;62.32;100024.97;4989699;28;20123;-54
2023/06/11 04:31:19;;;;;;;8.75;4.68;;;;;;;16.51;62.54;100021.47;4977268;28;20121;-53
2023/06/11 04:33:47;;;;;;;10.85;4.60;;;;;;;16.49;62.45;100033.72;4988484;28;20060;-53
2023/06/11 04:36:14;;;;;;;10.00;4.95;;;;;;;16.45;62.28;100028.56;4980471;28;20061;-53
2023/06/11 04:38:44;;;;;;;15.70;4.90;;;;;;;16.43;62.96;100030.38;4988630;28;20042;-57
2023/06/11 04:41:12;;;;;;;9.85;4.22;;;;;;;16.44;62.32;100039.06;4977915;28;20054;-55
2023/06/11 04:43:40;;;;;;;11.50;4.88;;;;;;;16.44;62.26;100045.16;4991406;28;20058;-54
2023/06/11 04:46:06;;;;;;;14.65;4.30;;;;;;;16.45;62.46;100033.78;4987313;28;20061;-55
2023/06/11 04:48:33;;;;;;;10.93;4.18;;;;;;;16.46;62.59;100029.44;4990553;28;20048;-56
2023/06/11 04:51:00;;;;;;;11.73;4.25;;;;;;;16.49;62.85;100038.94;4989284;28;20057;-58
2023/06/11 04:53:29;;;;;;;17.52;4.60;;;;;;;16.51;62.60;100037.16;4986034;28;20046;-59
2023/06/11 04:55:58;;;;;;;13.60;5.05;;;;;;;16.56;62.86;100040.50;4988611;28;20462;-52
2023/06/11 04:58:30;;;;;;;12.98;4.10;;;;;;;16.62;63.28;100035.06;4983542;28;20054;-50
2023/06/11 05:00:57;;;;;;;13.40;4.40;;;;;;;16.66;62.68;100036.72;4980063;28;20129;-53
2023/06/11 05:03:25;;;;;;;14.93;5.03;;;;;;;16.72;62.90;100040.06;4978673;28;20116;-55
2023/06/11 05:05:53;;;;;;;11.20;4.75;;;;;;;16.78;62.46;100043.34;4984714;28;20116;-51
2023/06/11 05:08:24;;;;;;;13.43;4.60;;;;;;;16.89;62.80;100034.34;4985007;28;20077;-55
2023/06/11 05:10:51;;;;;;;13.20;4.97;;;;;;;16.93;63.06;100034.19;4989129;28;20042;-57
2023/06/11 05:13:26;;;;;;;14.93;5.57;;;;;;;17.01;63.24;100038.34;4989533;28;20042;-58
2023/06/11 05:15:55;;;;;;;11.25;4.38;;;;;;;17.07;62.90;100032.97;4986939;28;20084;-53
2023/06/11 05:18:23;;;;;;;14.57;5.00;;;;;;;17.12;62.59;100038.91;4992642;28;20050;-54
2023/06/11 05:20:50;;;;;;;14.05;4.30;;;;;;;17.13;62.72;100031.91;4985998;28;20046;-54
2023/06/11 05:23:18;;;;;;;14.95;4.13;;;;;;;17.16;62.69;100045.75;4988368;28;20046;-55
2023/06/11 05:25:50;;;;;;;9.70;3.75;;;;;;;17.14;62.99;100044.09;4986091;28;20050;-57
2023/06/11 05:28:16;;;;;;;12.30;4.53;;;;;;;17.16;62.62;100037.91;4988997;28;20050;-59
2023/06/11 05:30:45;;;;;;;13.48;4.70;;;;;;;17.21;62.62;100046.50;4982188;28;20051;-57
2023/06/11 05:33:13;;;;;;;12.35;3.90;;;;;;;17.27;63.36;100041.97;4975092;28;20049;-53
2023/06/11 05:35:43;;;;;;;9.63;3.85;;;;;;;17.33;62.68;100040.00;4986038;28;20129;-58
2023/06/11 05:38:10;;;;;;;14.63;5.22;;;;;;;17.42;62.52;100041.47;4987560;28;20133;-52
2023/06/11 05:40:37;;;;;;;9.52;4.10;;;;;;;17.58;63.55;100051.47;4987392;28;20042;-52
2023/06/11 05:43:05;;;;;;;14.77;5.53;;;;;;;17.69;62.58;100044.13;4986440;28;20502;-55
2023/06/11 05:45:33;;;;;;;13.75;4.30;;;;;;;17.80;63.21;100045.56;4978747;28;21010;-52
2023/06/11 05:48:00;;;;;;;11.20;4.90;;;;;;;17.91;62.37;100048.66;4986247;28;20121;-52
2023/06/11 05:50:28;;;;;;;11.43;4.22;;;;;;;18.03;62.50;100041.31;4985026;28;20054;-56
2023/06/11 05:52:55;;;;;;;13.95;4.03;;;;;;;18.17;62.27;100046.94;4986927;28;20046;-56
2023/06/11 05:55:21;;;;;;;11.40;3.70;;;;;;;18.22;62.10;100047.66;4994151;28;20062;-54
2023/06/11 05:57:48;;;;;;;9.65;3.63;;;;;;;18.33;61.92;100044.66;4982466;28;20049;-56
2023/06/11 06:00:15;;;;;;;9.07;3.75;;;;;;;18.44;62.20;100041.63;4983190;28;20046;-55
2023/06/11 06:02:42;;;;;;;9.18;3.80;;;;;;;18.56;62.09;100039.47;4987179;28;20085;-58
2023/06/11 06:05:09;;;;;;;9.60;3.90;;;;;;;18.71;61.98;100038.94;4987952;28;20704;-58
2023/06/11 06:07:37;;;;;;;11.80;4.32;;;;;;;18.85;61.90;100040.19;4987416;28;20457;-57
2023/06/11 06:10:04;;;;;;;8.85;4.53;;;;;;;19.01;61.11;100050.94;4980765;28;20046;-56
2023/06/11 06:12:30;;;;;;;13.65;4.70;;;;;;;19.17;61.01;100046.00;4984414;28;20062;-58
2023/06/11 06:14:57;;;;;;;12.07;5.05;;;;;;;19.36;61.05;100050.53;4982214;28;20054;-52
2023/06/11 06:17:23;;;;;;;9.50;4.30;;;;;;;19.50;60.75;100042.97;4978969;28;20485;-56
2023/06/11 06:19:50;;;;;;;8.52;3.95;;;;;;;19.65;60.25;100056.38;4978693;28;20058;-54
2023/06/11 06:22:18;;;;;;;10.45;4.05;;;;;;;19.66;60.06;100052.88;4984404;28;20509;-59
2023/06/11 06:24:45;;;;;;;14.55;4.45;;;;;;;19.72;60.20;100044.72;4975818;28;20051;-52
2023/06/11 06:27:11;;;;;;;12.77;4.05;;;;;;;19.88;60.38;100051.97;4980115;28;20053;-55
2023/06/11 06:29:39;;;;;;;15.80;4.72;;;;;;;20.01;59.72;100047.94;4986435;28;20072;-54
2023/06/11 06:32:06;;;;;;;7.40;3.97;;;;;;;20.12;59.88;100049.25;4978034;28;20057;-59
2023/06/11 06:34:34;;;;;;;10.70;4.07;;;;;;;20.33;60.08;100057.97;4985107;28;20137;-53
2023/06/11 06:37:01;;;;;;;11.85;4.65;;;;;;;20.52;59.20;100055.41;4982045;28;20057;-50
2023/06/11 06:39:28;;;;;;;12.40;4.15;;;;;;;20.59;58.74;100055.13;4986243;28;23755;-55
2023/06/11 06:41:55;;;;;;;12.70;3.88;;;;;;;20.68;58.82;100052.09;4988289;28;20571;-59
2023/06/11 06:44:21;;;;;;;12.82;4.32;;;;;;;;;;4980764;28;20054;-56
2023/06/11 06:46:49;;;;;;;10.70;4.53;;;;;;;20.98;57.87;100064.81;4986070;28;20488;-59
2023/06/11 06:49:15;;;;;;;12.52;4.30;;;;;;;21.00;58.29;100052.41;4993728;28;20294;-57
2023/06/11 06:51:42;;;;;;;8.38;3.83;;;;;;;21.13;58.09;100060.59;4982056;28;20414;-58
2023/06/11 06:54:08;;;;;;;10.65;3.80;;;;;;;21.18;57.84;100055.13;4985958;28;20053;-53
2023/06/11 06:56:35;;;;;;;10.50;3.63;;;;;;;21.34;57.95;100060.50;4978414;28;20046;-54
2023/06/11 06:59:02;;;;;;;10.40;3.63;;;;;;;21.58;57.32;100066.38;4989462;28;20084;-56
2023/06/11 07:01:29;;;;;;;9.43;3.90;;;;;;;21.75;57.18;100064.72;4981658;28;20109;-57
2023/06/11 07:03:55;;;;;;;10.52;3.92;;;;;;;21.93;56.70;100067.38;4979927;28;20506;-58
2023/06/11 07:06:22;;;;;;;12.40;3.75;;;;;;;22.11;57.23;100062.09;4994547;28;20069;-58
2023/06/11 07:08:48;;;;;;;9.40;3.92;;;;;;;22.28;56.53;100067.38;4986026;28;20073;-61
2023/06/11 07:11:15;;;;;;;9.02;3.85;;;;;;;22.44;55.70;100066.56;4974106;28;20046;-60
2023/06/11 07:13:42;;;;;;;10.90;3.88;;;;;;;22.59;55.79;100070.22;4983536;28;20116;-57
2023/06/11 07:16:08;;;;;;;9.52;4.00;;;;;;;22.83;55.74;100062.78;4987273;28;20626;-57
2023/06/11 07:18:35;;;;;;;7.15;3.53;;;;;;;23.08;55.54;100069.38;4996716;28;20058;-57
2023/06/11 07:21:02;;;;;;;10.32;4.38;;;;;;;23.34;54.71;100069.69;4985122;28;20136;-57
2023/06/11 07:23:28;;;;;;;17.13;4.13;;;;;;;23.59;54.25;100065.69;4982796;28;20056;-61
2023/06/11 07:25:55;;;;;;;7.88;3.45;;;;;;;23.71;53.96;100063.28;4973870;28;20073;-59
2023/06/11 07:28:22;;;;;;;11.63;4.25;;;;;;;23.91;53.77;100063.91;4976776;28;20047;-57
2023/06/11 07:30:49;;;;;;;11.57;3.30;;;;;;;24.03;52.74;100065.84;4975064;28;20050;-57
2023/06/11 07:33:17;;;;;;;9.88;4.25;;;;;;;24.19;52.82;100068.47;4974582;28;20045;-60
2023/06/11 07:35:45;;;;;;;8.85;3.53;;;;;;;24.37;52.88;100066.50;4973962;28;20438;-55
2023/06/11 07:38:12;;;;;;;15.50;4.00;;;;;;;24.55;52.27;100068.94;4982406;28;20047;-56
2023/06/11 07:40:39;;;;;;;10.73;4.20;;;;;;;24.75;51.91;100072.16;4985660;28;20434;-57
2023/06/11 07:43:05;;;;;;;8.38;3.78;;;;;;;24.83;51.92;100067.25;4980453;28;20047;-56
2023/06/11 07:45:32;;;;;;;9.32;3.40;;;;;;;25.02;51.83;100074.06;4986100;28;20402;-60
2023/06/11 07:47:59;;;;;;;10.93;4.35;;;;;;;25.21;51.22;100075.53;4987374;28;20065;-57
2023/06/11 07:50:25;;;;;;;10.48;4.15;;;;;;;25.41;51.31;100067.16;4992132;28;20049;-55
2023/06/11 07:52:52;;;;;;;9.10;3.95;;;;;;;25.60;50.71;100071.25;4990256;28;20092;-59
2023/06/11 07:55:19;;;;;;;10.90;3.47;;;;;;;25.81;50.77;100073.47;4989080;28;20042;-59
2023/06/11 07:57:46;;;;;;;9.95;4.13;;;;;;;26.04;50.09;100079.84;4992870;28;20685;-58
2023/06/11 08:00:13;;;;;;;9.77;3.72;;;;;;;26.13;50.10;100077.53;4985588;28;20087;-53
2023/06/11 08:02:40;;;;;;;8.77;4.30;;;;;;;26.28;49.83;100068.53;4982234;28;20053;-57
2023/06/11 08:05:10;;;;;;;10.25;3.80;;;;;;;26.43;49.36;100064.00;4982110;28;20058;-52
2023/06/11 08:07:37;;;;;;;9.18;4.07;;;;;;;26.60;49.07;100064.63;4982080;28;20043;-57
2023/06/11 08:10:04;;;;;;;11.02;4.32;;;;;;;26.77;48.52;100067.88;4984268;28;20050;-59
2023/06/11 08:12:31;;;;;;;12.57;4.72;;;;;;;26.92;47.73;100068.63;4981815;28;20137;-60
2023/06/11 08:14:58;;;;;;;7.22;3.78;;;;;;;26.99;47.71;100069.91;4984254;28;20054;-57
2023/06/11 08:17:24;;;;;;;8.73;3.60;;;;;;;27.07;47.26;100066.69;4979197;28;20550;-57
2023/06/11 08:19:51;;;;;;;9.30;4.43;;;;;;;27.22;47.71;100070.03;4979148;28;20366;-55
2023/06/11 08:22:18;;;;;;;8.43;3.53;;;;;;;27.26;47.86;100071.53;4982049;28;20042;-53
2023/06/11 08:24:44;;;;;;;7.35;3.78;;;;;;;27.35;47.73;100069.97;4985635;28;20616;-57
2023/06/11 08:27:12;;;;;;;11.48;4.20;;;;;;;27.56;48.14;100070.19;4980769;28;20046;-59
2023/06/11 08:29:38;;;;;;;10.30;4.63;;;;;;;27.78;46.65;100065.09;4978387;28;20058;-54
2023/06/11 08:32:05;;;;;;;10.13;3.90;;;;;;;27.86;46.82;100068.03;4981073;28;20060;-52
2023/06/11 08:34:32;;;;;;;9.85;4.25;;;;;;;28.04;46.39;100075.59;4983806;28;20146;-55
2023/06/11 08:37:00;;;;;;;9.10;3.90;;;;;;;28.20;46.18;100075.28;4980212;28;20461;-57
2023/06/11 08:39:27;;;;;;;7.80;3.30;;;;;;;28.46;46.78;100081.25;4983251;28;20683;-57
2023/06/11 08:41:53;;;;;;;6.93;4.18;;;;;;;28.68;46.02;100073.41;4984056;28;20052;-60
2023/06/11 08:44:21;;;;;;;11.10;4.57;;;;;;;28.85;45.31;100080.88;4989725;28;20049;-52
2023/06/11 08:46:53;;;;;;;10.60;4.55;;;;;;;28.92;45.36;100070.63;4992764;28;20178;-54
2023/06/11 08:49:22;;;;;;;11.25;5.45;;;;;;;29.08;44.40;100072.06;4982600;28;20053;-58
2023/06/11 08:51:49;;;;;;;10.32;4.60;;;;;;;29.20;44.14;100073.72;4992935;28;20052;-58
2023/06/11 08:54:17;;;;;;;15.68;3.90;;;;;;;29.32;44.57;100071.03;4978221;28;20054;-56
2023/06/11 08:56:44;;;;;;;9.93;4.47;;;;;;;29.41;44.24;100064.91;4988312;28;20042;-55
2023/06/11 08:59:11;;;;;;;8.95;4.25;;;;;;;29.58;43.90;100065.41;4976515;28;20058;-56
2023/06/11 09:01:40;;;;;;;9.80;4.18;;;;;;;29.73;43.33;100061.44;4989770;28;20057;-59
2023/06/11 09:04:07;;;;;;;;;;;;;;;29.85;43.63;100058.72;4970864;28;20062;-53
2023/06/11 09:06:34;;;;;;;11.02;4.18;;;;;;;29.89;42.92;100060.16;4973557;28;19929;-59
2023/06/11 09:09:07;;;;;;;8.35;3.75;;;;;;;30.00;43.29;100057.41;4971628;28;20097;-54
2023/06/11 09:11:36;;;;;;;9.65;3.65;;;;;;;30.14;42.76;100060.75;4976418;28;20116;-57
2023/06/11 09:14:04;;;;;;;9.30;3.70;;;;;;;30.26;42.89;100059.69;4983509;28;20058;-59
2023/06/11 09:16:41;;;;;;;11.38;4.60;;;;;;;30.39;42.33;100053.25;4976319;28;20054;-59
2023/06/11 09:19:13;;;;;;;10.52;4.50;;;;;;;30.55;42.13;100057.28;4973603;28;20061;-56
2023/06/11 09:21:56;;;;;;;9.70;4.60;;;;;;;30.60;42.87;100050.53;4972442;28;20065;-53
2023/06/11 09:24:24;;;;;;;9.18;3.85;;;;;;;30.81;42.05;100059.50;4973783;28;20050;-55
2023/06/11 09:26:55;;;;;;;12.10;4.32;;;;;;;30.99;42.12;100065.88;4978874;28;20122;-55
2023/06/11 09:29:24;;;;;;;10.35;4.32;;;;;;;31.08;41.64;100058.03;4987670;28;20054;-55
2023/06/11 09:32:08;;;;;;;10.25;4.90;;;;;;;31.14;41.98;100060.16;4972433;28;20042;-56
2023/06/11 09:34:56;;;;;;;8.35;4.00;;;;;;;31.21;41.09;100058.63;4987551;28;20124;-53
2023/06/11 09:37:23;;;;;;;10.38;4.53;;;;;;;31.29;41.00;100066.78;4988252;28;20196;-57
2023/06/11 09:39:50;;;;;;;9.95;4.05;;;;;;;31.43;41.41;100062.03;4979922;28;20141;-57
2023/06/11 09:42:26;;;;;;;7.72;4.00;;;;;;;31.57;40.77;100062.59;4970317;28;21001;-56
2023/06/11 09:44:58;;;;;;;8.50;4.40;;;;;;;31.72;41.32;100058.50;4992528;28;20046;-55
2023/06/11 09:47:28;;;;;;;9.43;4.30;;;;;;;31.88;40.61;100059.75;4986392;28;20644;-56
2023/06/11 09:49:57;;;;;;;12.75;4.43;;;;;;;31.92;40.49;100063.88;4983008;28;20056;-54
2023/06/11 09:52:26;;;;;;;9.57;4.75;;;;;;;32.05;40.18;100066.25;4986616;28;20061;-56
2023/06/11 09:54:53;;;;;;;;;;;;;;;32.14;40.89;100051.13;4982136;28;20398;-57
2023/06/11 09:57:21;;;;;;;8.10;4.45;;;;;;;32.26;40.10;100068.72;4991467;28;20368;-57
2023/06/11 09:59:48;;;;;;;10.88;5.13;;;;;;;32.32;39.80;100067.31;4978263;28;20056;-58
2023/06/11 10:02:14;;;;;;;9.40;4.32;;;;;;;32.42;39.25;100061.91;4988907;28;20038;-53
2023/06/11 10:04:42;;;;;;;9.38;4.15;;;;;;;32.44;39.23;100060.75;4992916;28;20648;-55
2023/06/11 10:07:10;;;;;;;11.90;4.22;;;;;;;32.54;39.13;100054.53;4994741;28;20073;-57
2023/06/11 10:09:40;;;;;;;9.27;4.03;;;;;;;32.55;39.40;100057.06;4983283;28;20561;-55
2023/06/11 10:12:08;;;;;;;13.85;4.93;;;;;;;32.56;39.39;100057.94;4990085;28;20053;-56
2023/06/11 10:14:36;;;;;;;9.85;4.88;;;;;;;32.57;39.52;100059.59;4995205;28;20842;-56
2023/06/11 10:17:07;;;;;;;;;;;;;;;32.50;39.84;100055.81;4984077;28;20727;-58
2023/06/11 10:19:36;;;;;;;11.60;4.50;;;;;;;32.75;39.17;100059.66;4990903;28;19929;-56
2023/06/11 10:22:03;;;;;;;9.98;4.60;;;;;;;32.80;38.85;100065.44;4995259;28;20072;-57
2023/06/11 10:24:30;;;;;;;9.25;4.40;;;;;;;32.89;39.31;100062.84;4995772;28;20046;-55
2023/06/11 10:27:08;;;;;;;10.23;4.45;;;;;;;33.04;38.87;100056.00;4992992;28;20669;-55
2023/06/11 10:29:38;;;;;;;7.88;4.18;;;;;;;33.24;38.26;100055.84;4977607;28;20088;-54
2023/06/11 10:32:19;;;;;;;9.50;5.03;;;;;;;33.34;37.35;100056.59;4990584;28;20501;-57
2023/06/11 10:34:57;;;;;;;9.10;4.82;;;;;;;33.48;37.98;100051.69;4991236;28;20079;-54
2023/06/11 10:40:09;;;;;;;9.45;4.10;;;;;;;33.34;38.09;100061.97;5042991;27;20395;-56
2023/06/11 10:45:13;;;;;;;11.07;5.00;;;;;;;33.38;38.54;100061.66;5059094;27;20364;-57
2023/06/11 10:50:30;;;;;;;10.07;5.78;;;;;;;33.57;38.56;100056.16;5009405;28;20411;-58
2023/06/11 10:52:59;;;;;;;9.60;6.32;;;;;;;33.69;38.50;100054.09;5013214;28;20039;-53
2023/06/11 10:55:29;;;;;;;12.13;6.60;;;;;;;33.79;37.91;100059.38;4990295;28;20149;-55
2023/06/11 10:57:58;;;;;;;9.82;6.15;;;;;;;33.71;36.75;100062.00;4978340;28;20129;-52
2023/06/11 11:00:28;;;;;;;8.32;4.82;;;;;;;33.66;37.27;100053.53;4983228;28;20607;-56
2023/06/11 11:02:57;;;;;;;9.95;5.85;;;;;;;33.73;37.61;100049.25;4977542;28;20050;-54
2023/06/11 11:05:26;;;;;;;10.05;5.90;;;;;;;33.88;37.90;100051.38;4983081;28;20102;-58
2023/06/11 11:07:53;;;;;;;11.27;6.25;;;;;;;33.90;37.85;100054.75;4982029;28;20498;-56
2023/06/11 11:10:25;;;;;;;9.82;4.90;;;;;;;33.94;37.38;100056.13;4982685;28;20384;-58
2023/06/11 11:12:53;;;;;;;12.07;6.05;;;;;;;34.04;37.79;100048.78;4974058;28;20060;-54
2023/06/11 11:15:20;;;;;;;8.45;6.13;;;;;;;34.08;36.81;100047.44;4978182;28;20046;-57
2023/06/11 11:17:47;;;;;;;8.48;6.28;;;;;;;34.12;36.95;100052.56;4982384;28;20046;-59
2023/06/11 11:20:17;;;;;;;10.05;6.15;;;;;;;34.22;36.50;100064.03;4982945;28;20057;-52
2023/06/11 11:22:54;;;;;;;8.57;5.93;;;;;;;34.19;37.00;100064.34;4982913;28;20047;-53
2023/06/11 11:25:24;;;;;;;10.65;6.95;;;;;;;34.20;36.03;100063.34;4982174;28;20630;-57
2023/06/11 11:27:50;;;;;;;12.55;6.22;;;;;;;34.24;36.67;100067.41;4980254;28;20046;-53
2023/06/11 11:30:17;;;;;;;10.63;6.90;;;;;;;34.31;35.94;100068.44;4973667;28;20043;-53
2023/06/11 11:32:44;;;;;;;9.75;7.00;;;;;;;34.27;35.89;100061.72;4983469;28;20082;-54
2023/06/11 11:35:14;;;;;;;13.10;8.48;;;;;;;34.21;35.88;100068.56;4985463;28;20528;-52
2023/06/11 11:37:44;;;;;;;13.93;6.72;;;;;;;34.16;36.35;100064.66;4980853;28;20046;-56
2023/06/11 11:40:12;;;;;;;11.23;6.95;;;;;;;34.15;35.99;100057.59;4982058;28;20058;-57